Time;durP1;ratioP1;P1;durP2;ratioP2;P2;SDS_P1;SDS_P2;PMS_P1;PMS_P2;Temp;Humidity;BMP_temperature;BMP_pressure;BME280_temperature;BME280_humidity;BME280_pressure;Samples;Min_cycle;Max_cycle;Signal;HPM_P1;HPM_P2
2022/07/24 00:00:01;;;;;;;1.77;1.10;;;27.60;74.30;;;;;;5052147;28;20044;-55
2022/07/24 00:02:38;;;;;;;0.98;0.98;;;27.70;74.70;;;;;;5042521;28;20428;-57
2022/07/24 00:05:06;;;;;;;1.80;1.38;;;27.70;74.60;;;;;;5047936;28;20398;-55
2022/07/24 00:07:34;;;;;;;0.95;0.95;;;27.70;74.70;;;;;;5052655;28;20053;-52
2022/07/24 00:10:03;;;;;;;1.33;0.52;;;27.70;74.60;;;;;;5049939;28;20045;-52
2022/07/24 00:12:31;;;;;;;0.50;0.50;;;27.70;74.90;;;;;;5055865;28;20052;-53
2022/07/24 00:14:59;;;;;;;0.73;0.73;;;27.70;74.80;;;;;;5045154;28;20049;-55
2022/07/24 00:17:26;;;;;;;1.67;0.90;;;27.60;74.30;;;;;;5042068;28;20501;-55
2022/07/24 00:19:53;;;;;;;0.55;0.55;;;27.50;75.10;;;;;;5048576;28;20056;-52
2022/07/24 00:22:21;;;;;;;1.17;1.08;;;27.60;74.90;;;;;;5053708;28;20045;-56
2022/07/24 00:24:48;;;;;;;22.50;2.20;;;27.70;75.10;;;;;;5032681;28;20384;-55
2022/07/24 00:27:15;;;;;;;2.25;1.35;;;27.70;75.00;;;;;;5048380;28;20786;-55
2022/07/24 00:29:43;;;;;;;;;;;27.70;75.00;;;;;;5052082;28;20040;-54
2022/07/24 00:32:10;;;;;;;0.55;0.52;;;27.70;74.70;;;;;;5047885;28;19921;-55
2022/07/24 00:34:37;;;;;;;0.60;0.60;;;27.80;74.50;;;;;;5043309;28;20037;-56
2022/07/24 00:37:05;;;;;;;0.40;0.40;;;27.80;74.60;;;;;;5051142;28;20036;-52
2022/07/24 00:39:32;;;;;;;1.35;1.00;;;27.80;74.90;;;;;;5051698;28;20045;-52
2022/07/24 00:41:59;;;;;;;;;;;27.80;75.00;;;;;;5044177;28;20041;-57
2022/07/24 00:44:27;;;;;;;0.40;0.40;;;27.60;75.00;;;;;;5053171;28;19932;-52
2022/07/24 00:46:54;;;;;;;0.65;0.52;;;27.60;75.30;;;;;;5053605;28;20052;-56
2022/07/24 00:49:21;;;;;;;1.55;1.13;;;27.70;75.10;;;;;;5048916;28;20049;-54
2022/07/24 00:51:53;;;;;;;5.38;1.90;;;27.70;75.00;;;;;;5047051;28;20496;-53
2022/07/24 00:54:21;;;;;;;0.73;0.73;;;27.80;74.90;;;;;;5048918;28;20053;-54
2022/07/24 00:56:50;;;;;;;0.60;0.60;;;27.70;74.90;;;;;;5054580;28;20063;-56
2022/07/24 00:59:19;;;;;;;1.38;0.98;;;27.70;75.10;;;;;;5050553;28;20045;-52
2022/07/24 01:01:47;;;;;;;0.55;0.55;;;27.80;75.00;;;;;;5046605;28;20041;-52
2022/07/24 01:04:15;;;;;;;0.98;0.98;;;27.70;75.60;;;;;;5041763;28;20053;-55
2022/07/24 01:06:44;;;;;;;0.70;0.70;;;27.70;75.40;;;;;;5053181;28;20049;-55
2022/07/24 01:09:11;;;;;;;0.93;0.82;;;27.70;75.10;;;;;;5047124;28;20052;-52
2022/07/24 01:11:39;;;;;;;0.68;0.68;;;27.80;74.90;;;;;;5035009;28;20500;-55
2022/07/24 01:14:08;;;;;;;1.10;0.50;;;27.70;74.90;;;;;;5047254;28;20054;-57
2022/07/24 01:16:36;;;;;;;0.30;0.30;;;27.80;75.20;;;;;;5035440;28;20056;-53
2022/07/24 01:19:04;;;;;;;0.35;0.35;;;27.80;75.00;;;;;;5045451;28;20048;-53
2022/07/24 01:21:32;;;;;;;0.77;0.60;;;27.70;74.90;;;;;;5060358;28;20036;-56
2022/07/24 01:24:00;;;;;;;3.05;1.70;;;27.70;75.30;;;;;;5040198;28;20392;-54
2022/07/24 01:26:27;;;;;;;1.20;0.80;;;27.70;75.40;;;;;;5045799;28;20411;-56
2022/07/24 01:28:54;;;;;;;2.13;1.40;;;27.70;75.40;;;;;;5042388;28;20044;-56
2022/07/24 01:31:21;;;;;;;0.55;0.43;;;27.60;75.20;;;;;;5049531;28;20033;-53
2022/07/24 01:33:49;;;;;;;1.65;0.93;;;27.60;75.60;;;;;;5056840;28;20036;-54
2022/07/24 01:36:16;;;;;;;0.40;0.40;;;27.40;75.50;;;;;;5038726;28;20045;-52
2022/07/24 01:38:43;;;;;;;0.85;0.85;;;27.50;75.90;;;;;;5063580;28;20040;-56
2022/07/24 01:41:11;;;;;;;0.30;0.30;;;27.50;75.80;;;;;;5056476;28;20389;-55
2022/07/24 01:43:39;;;;;;;0.77;0.77;;;27.60;75.80;;;;;;5055267;28;20048;-56
2022/07/24 01:46:06;;;;;;;0.57;0.57;;;27.60;75.70;;;;;;5051121;28;20052;-56
2022/07/24 01:48:34;;;;;;;2.08;0.82;;;27.70;75.40;;;;;;5043464;28;20056;-55
2022/07/24 01:51:01;;;;;;;0.52;0.52;;;27.60;75.20;;;;;;5043647;28;20053;-55
2022/07/24 01:53:29;;;;;;;1.67;0.85;;;27.60;76.00;;;;;;5051087;28;20051;-52
2022/07/24 01:55:56;;;;;;;0.65;0.52;;;27.60;75.60;;;;;;5045634;28;20055;-55
2022/07/24 01:58:23;;;;;;;1.63;1.52;;;27.70;75.00;;;;;;5039686;28;20410;-54
2022/07/24 02:00:51;;;;;;;0.40;0.40;;;27.50;75.70;;;;;;5059964;28;20503;-52
2022/07/24 02:03:19;;;;;;;0.85;0.82;;;27.60;76.10;;;;;;5042597;28;20052;-55
2022/07/24 02:05:47;;;;;;;5.47;2.05;;;27.60;74.90;;;;;;5050011;28;20052;-54
2022/07/24 02:08:14;;;;;;;3.08;1.52;;;27.50;75.20;;;;;;5048597;28;20057;-57
2022/07/24 02:10:42;;;;;;;1.08;1.05;;;27.50;75.70;;;;;;5057180;28;20406;-55
2022/07/24 02:13:09;;;;;;;0.60;0.60;;;27.40;75.20;;;;;;5043798;28;20049;-54
2022/07/24 02:15:36;;;;;;;2.00;1.10;;;27.50;75.10;;;;;;5054766;28;20408;-57
2022/07/24 02:18:04;;;;;;;2.88;0.55;;;27.50;75.00;;;;;;5047958;28;20045;-54
2022/07/24 02:20:32;;;;;;;0.60;0.60;;;27.60;75.30;;;;;;5063553;28;20435;-53
2022/07/24 02:22:59;;;;;;;;;;;27.60;75.20;;;;;;5048070;28;20504;-54
2022/07/24 02:25:26;;;;;;;0.77;0.68;;;27.70;75.20;;;;;;5051990;28;20517;-55
2022/07/24 02:27:53;;;;;;;0.40;0.40;;;27.70;75.80;;;;;;5048688;28;20056;-51
2022/07/24 02:30:22;;;;;;;1.45;0.73;;;27.60;75.10;;;;;;5052019;28;20076;-55
2022/07/24 02:32:50;;;;;;;1.35;0.95;;;27.70;75.10;;;;;;5049930;28;20144;-50
2022/07/24 02:35:17;;;;;;;1.00;0.93;;;27.60;75.00;;;;;;5060237;28;20535;-57
2022/07/24 02:37:45;;;;;;;0.95;0.95;;;27.70;75.40;;;;;;5045661;28;20409;-55
2022/07/24 02:40:14;;;;;;;1.35;0.77;;;27.60;75.30;;;;;;5034424;28;20048;-55
2022/07/24 02:42:42;;;;;;;0.82;0.82;;;27.60;75.30;;;;;;5049200;28;20045;-53
2022/07/24 02:45:10;;;;;;;1.90;0.95;;;27.60;75.00;;;;;;5057220;28;20059;-56
2022/07/24 02:47:47;;;;;;;2.70;2.00;;;27.70;74.80;;;;;;5048777;28;20049;-56
2022/07/24 02:50:15;;;;;;;0.38;0.38;;;27.70;74.60;;;;;;5050697;28;20060;-53
2022/07/24 02:52:42;;;;;;;1.05;1.02;;;27.70;75.00;;;;;;5044744;28;20507;-55
2022/07/24 02:55:10;;;;;;;0.43;0.43;;;27.60;74.90;;;;;;5049846;28;20479;-51
2022/07/24 02:57:37;;;;;;;;;;;27.60;74.80;;;;;;5048684;28;20068;-54
2022/07/24 03:00:08;;;;;;;2.20;1.27;;;27.60;75.00;;;;;;5042832;28;19928;-54
2022/07/24 03:02:35;;;;;;;0.50;0.50;;;27.70;75.00;;;;;;5054783;28;20040;-56
2022/07/24 03:05:03;;;;;;;;;;;27.70;75.00;;;;;;5061430;28;20045;-54
2022/07/24 03:07:31;;;;;;;0.82;0.82;;;27.70;75.10;;;;;;5061275;28;19925;-56
2022/07/24 03:09:58;;;;;;;;;;;27.70;75.00;;;;;;5058288;28;20045;-53
2022/07/24 03:12:25;;;;;;;0.63;0.63;;;27.70;74.90;;;;;;5055277;28;19931;-55
2022/07/24 03:14:52;;;;;;;0.70;0.70;;;27.70;74.90;;;;;;5049692;28;20518;-50
2022/07/24 03:17:20;;;;;;;1.58;0.98;;;27.70;74.90;;;;;;5059619;28;20056;-51
2022/07/24 03:19:47;;;;;;;1.45;1.13;;;27.70;75.20;;;;;;5059504;28;20044;-53
2022/07/24 03:22:14;;;;;;;1.17;0.77;;;27.70;75.10;;;;;;5033892;28;20041;-52
2022/07/24 03:24:42;;;;;;;1.85;0.80;;;27.70;75.20;;;;;;5049215;28;20049;-54
2022/07/24 03:27:10;;;;;;;0.52;0.52;;;27.70;75.30;;;;;;5047416;28;20050;-53
2022/07/24 03:29:38;;;;;;;1.25;1.15;;;27.60;75.20;;;;;;5049464;28;20053;-55
2022/07/24 03:32:06;;;;;;;4.15;2.55;;;27.70;75.20;;;;;;5044477;28;20060;-55
2022/07/24 03:34:33;;;;;;;1.45;0.95;;;27.70;75.10;;;;;;5043207;28;20056;-53
2022/07/24 03:37:00;;;;;;;0.50;0.50;;;27.70;75.10;;;;;;5047049;28;20045;-57
2022/07/24 03:39:28;;;;;;;0.63;0.63;;;27.70;75.20;;;;;;5050980;28;20041;-56
2022/07/24 03:41:55;;;;;;;2.28;1.10;;;27.70;75.30;;;;;;5036293;28;20057;-53
2022/07/24 03:44:22;;;;;;;1.45;1.00;;;27.60;75.20;;;;;;5048905;28;20040;-53
2022/07/24 03:46:50;;;;;;;2.10;1.77;;;27.50;75.20;;;;;;5048888;28;20044;-54
2022/07/24 03:49:17;;;;;;;0.88;0.82;;;27.50;75.60;;;;;;5041253;28;20345;-54
2022/07/24 03:51:45;;;;;;;0.60;0.60;;;27.40;75.60;;;;;;5046137;28;20053;-53
2022/07/24 03:54:14;;;;;;;1.45;1.08;;;27.40;75.60;;;;;;5037675;28;20053;-53
2022/07/24 03:56:42;;;;;;;0.65;0.65;;;27.40;75.70;;;;;;5028715;28;20485;-52
2022/07/24 03:59:09;;;;;;;1.33;1.20;;;27.40;75.80;;;;;;5027516;28;20417;-53
2022/07/24 04:01:36;;;;;;;0.30;0.30;;;27.30;75.90;;;;;;5037869;28;20381;-52
2022/07/24 04:04:07;;;;;;;0.57;0.57;;;27.40;76.10;;;;;;5031862;28;20409;-55
2022/07/24 04:06:35;;;;;;;0.75;0.70;;;27.20;76.10;;;;;;5026016;28;20401;-56
2022/07/24 04:09:04;;;;;;;0.80;0.75;;;27.20;76.50;;;;;;5032752;28;20049;-51
2022/07/24 04:11:32;;;;;;;3.10;1.30;;;27.30;76.50;;;;;;5028176;28;20049;-53
2022/07/24 04:14:00;;;;;;;;;;;27.10;76.10;;;;;;5035261;28;20060;-53
2022/07/24 04:16:27;;;;;;;2.08;1.50;;;27.10;76.50;;;;;;5036211;28;19925;-55
2022/07/24 04:18:54;;;;;;;0.35;0.35;;;27.10;76.40;;;;;;5021857;28;20470;-56
2022/07/24 04:21:22;;;;;;;0.75;0.75;;;27.00;76.60;;;;;;5032520;28;20045;-56
2022/07/24 04:23:49;;;;;;;0.98;0.95;;;27.00;76.70;;;;;;5030105;28;20045;-55
2022/07/24 04:26:17;;;;;;;0.88;0.60;;;26.90;76.60;;;;;;5033079;28;20053;-54
2022/07/24 04:28:45;;;;;;;0.65;0.65;;;26.90;77.10;;;;;;5014997;28;20061;-53
2022/07/24 04:31:12;;;;;;;0.40;0.40;;;26.90;76.90;;;;;;5030711;28;20056;-54
2022/07/24 04:33:39;;;;;;;1.13;0.77;;;26.90;76.90;;;;;;5031139;28;20056;-55
2022/07/24 04:36:07;;;;;;;1.15;1.05;;;27.00;77.00;;;;;;5032992;28;20045;-55
2022/07/24 04:38:39;;;;;;;1.65;1.10;;;26.90;76.80;;;;;;5023164;28;20473;-58
2022/07/24 04:41:06;;;;;;;0.95;0.95;;;27.00;77.20;;;;;;5029846;28;20045;-55
2022/07/24 04:43:34;;;;;;;;;;;27.10;77.00;;;;;;5032468;28;20041;-56
2022/07/24 04:46:01;;;;;;;1.65;1.30;;;27.10;77.10;;;;;;5024973;28;19925;-53
2022/07/24 04:48:28;;;;;;;0.70;0.70;;;27.20;77.10;;;;;;5032326;28;20091;-57
2022/07/24 04:50:55;;;;;;;1.25;0.88;;;27.20;77.10;;;;;;5032362;28;20489;-57
2022/07/24 04:53:23;;;;;;;2.10;1.40;;;27.20;77.20;;;;;;5021962;28;20107;-53
2022/07/24 04:55:50;;;;;;;4.55;1.58;;;27.30;77.10;;;;;;5024514;28;20064;-54
2022/07/24 04:58:17;;;;;;;1.42;1.10;;;27.30;77.00;;;;;;5047685;28;20059;-55
2022/07/24 05:00:45;;;;;;;11.77;1.10;;;27.40;77.00;;;;;;5039453;28;20377;-57
2022/07/24 05:03:12;;;;;;;;;;;27.40;77.00;;;;;;5038093;28;20060;-57
2022/07/24 05:05:39;;;;;;;0.70;0.70;;;27.40;77.00;;;;;;5042663;28;19931;-54
2022/07/24 05:08:07;;;;;;;3.53;1.30;;;27.40;77.10;;;;;;5042226;28;20048;-55
2022/07/24 05:10:34;;;;;;;3.65;1.65;;;27.30;77.80;;;;;;5032223;28;20041;-55
2022/07/24 05:13:01;;;;;;;1.27;1.20;;;27.30;77.80;;;;;;5039758;28;20429;-54
2022/07/24 05:15:30;;;;;;;4.10;1.83;;;27.40;77.60;;;;;;5040716;28;20052;-53
2022/07/24 05:17:57;;;;;;;;;;;27.40;77.50;;;;;;5042231;28;20385;-55
2022/07/24 05:20:24;;;;;;;3.20;1.77;;;27.40;77.50;;;;;;5040325;28;20331;-54
2022/07/24 05:22:52;;;;;;;1.48;1.35;;;27.40;77.40;;;;;;5046963;28;20075;-56
2022/07/24 05:25:19;;;;;;;1.55;0.93;;;27.50;77.40;;;;;;5045147;28;20053;-56
2022/07/24 05:27:46;;;;;;;;;;;27.60;76.80;;;;;;5041795;28;20056;-53
2022/07/24 05:30:14;;;;;;;2.67;2.15;;;27.50;76.70;;;;;;5041536;28;19925;-53
2022/07/24 05:32:41;;;;;;;;;;;27.60;76.90;;;;;;5043220;28;20053;-54
2022/07/24 05:35:08;;;;;;;1.25;1.15;;;27.40;77.10;;;;;;5038116;28;19925;-53
2022/07/24 05:37:36;;;;;;;2.05;1.65;;;27.30;77.50;;;;;;5043485;28;20037;-53
2022/07/24 05:40:04;;;;;;;1.73;1.40;;;27.30;77.40;;;;;;5040662;28;20041;-52
2022/07/24 05:42:32;;;;;;;3.83;1.58;;;27.40;77.60;;;;;;5025614;28;20048;-53
2022/07/24 05:44:59;;;;;;;1.27;1.17;;;27.30;76.80;;;;;;5044331;28;20051;-55
2022/07/24 05:47:26;;;;;;;2.17;1.05;;;27.30;77.10;;;;;;5039645;28;20057;-53
2022/07/24 05:49:54;;;;;;;0.68;0.68;;;27.30;76.70;;;;;;5045255;28;20044;-56
2022/07/24 05:52:21;;;;;;;0.88;0.75;;;27.30;75.70;;;;;;5043444;28;20539;-53
2022/07/24 05:54:48;;;;;;;0.85;0.68;;;27.00;75.70;;;;;;5043060;28;20520;-57
2022/07/24 05:57:16;;;;;;;4.57;1.30;;;26.80;75.90;;;;;;5039084;28;20428;-56
2022/07/24 05:59:43;;;;;;;0.50;0.50;;;27.00;76.10;;;;;;5038109;28;20052;-57
2022/07/24 06:02:10;;;;;;;1.08;1.00;;;27.10;75.80;;;;;;5057021;28;20041;-53
2022/07/24 06:04:41;;;;;;;0.98;0.75;;;27.20;76.40;;;;;;5041878;28;20049;-57
2022/07/24 06:07:10;;;;;;;1.10;0.73;;;27.30;76.60;;;;;;5050476;28;20055;-56
2022/07/24 06:09:38;;;;;;;0.57;0.57;;;27.20;76.40;;;;;;5038369;28;20036;-59
2022/07/24 06:12:06;;;;;;;3.67;1.30;;;27.30;76.70;;;;;;5045166;28;20528;-57
2022/07/24 06:14:34;;;;;;;5.63;1.83;;;27.10;76.50;;;;;;5043312;28;20056;-57
2022/07/24 06:17:01;;;;;;;1.25;1.05;;;27.20;76.30;;;;;;5044222;28;20531;-59
2022/07/24 06:19:28;;;;;;;4.43;1.08;;;27.30;76.10;;;;;;5044922;28;20389;-56
2022/07/24 06:21:56;;;;;;;0.35;0.35;;;27.30;76.10;;;;;;5044958;28;20050;-55
2022/07/24 06:24:23;;;;;;;2.55;1.30;;;27.30;75.90;;;;;;5053905;28;20052;-57
2022/07/24 06:26:50;;;;;;;0.50;0.50;;;27.40;75.60;;;;;;5045215;28;20049;-53
2022/07/24 06:29:37;;;;;;;0.80;0.70;;;27.40;75.80;;;;;;5038105;28;20051;-56
2022/07/24 06:32:05;;;;;;;1.88;0.88;;;27.40;75.90;;;;;;5046724;28;20041;-59
2022/07/24 06:34:32;;;;;;;0.77;0.77;;;27.40;75.60;;;;;;5050296;28;20059;-60
2022/07/24 06:36:59;;;;;;;0.60;0.60;;;27.30;75.60;;;;;;5048727;28;20523;-55
2022/07/24 06:39:27;;;;;;;1.63;1.50;;;27.10;75.80;;;;;;5044697;28;20061;-58
2022/07/24 06:41:54;;;;;;;2.08;1.65;;;27.20;76.00;;;;;;5053137;28;20508;-59
2022/07/24 06:44:24;;;;;;;1.58;1.08;;;27.30;76.00;;;;;;5034976;28;20100;-58
2022/07/24 06:46:52;;;;;;;1.63;0.98;;;27.30;75.50;;;;;;5032793;28;20397;-58
2022/07/24 06:49:19;;;;;;;;;;;27.20;75.50;;;;;;5046342;28;20045;-57
2022/07/24 06:51:47;;;;;;;0.60;0.60;;;27.20;75.80;;;;;;5045830;28;20305;-56
2022/07/24 06:54:15;;;;;;;0.80;0.80;;;27.20;75.60;;;;;;5039139;28;20053;-57
2022/07/24 06:56:43;;;;;;;1.45;0.77;;;27.10;75.60;;;;;;5043561;28;20055;-57
2022/07/24 06:59:16;;;;;;;0.40;0.40;;;27.10;75.50;;;;;;5051533;28;21106;-55
2022/07/24 07:01:43;;;;;;;1.17;0.82;;;27.00;75.30;;;;;;5046546;28;20042;-56
2022/07/24 07:04:11;;;;;;;6.00;1.30;;;26.90;75.30;;;;;;5046647;28;20048;-56
2022/07/24 07:06:38;;;;;;;2.45;1.27;;;27.00;75.50;;;;;;5047211;28;20041;-55
2022/07/24 07:09:10;;;;;;;0.70;0.70;;;27.10;75.60;;;;;;5049815;28;20051;-57
2022/07/24 07:11:38;;;;;;;0.85;0.85;;;27.20;75.60;;;;;;5042759;28;20052;-51
2022/07/24 07:14:05;;;;;;;1.05;1.05;;;27.00;75.60;;;;;;5037548;28;20041;-54
2022/07/24 07:16:32;;;;;;;0.50;0.50;;;27.00;75.90;;;;;;5045019;28;20048;-51
2022/07/24 07:19:00;;;;;;;0.45;0.45;;;27.10;75.20;;;;;;5046027;28;20047;-57
2022/07/24 07:21:28;;;;;;;3.17;1.65;;;27.10;75.50;;;;;;5041714;28;20052;-55
2022/07/24 07:23:55;;;;;;;1.58;1.05;;;27.20;75.10;;;;;;5050483;28;20048;-57
2022/07/24 07:26:22;;;;;;;0.80;0.70;;;27.20;75.20;;;;;;5029646;28;20531;-50
2022/07/24 07:28:50;;;;;;;0.40;0.40;;;27.10;75.80;;;;;;5050892;28;20041;-53
2022/07/24 07:31:17;;;;;;;0.60;0.60;;;27.10;75.70;;;;;;5048652;28;20041;-55
2022/07/24 07:33:44;;;;;;;;;;;26.90;75.50;;;;;;5035223;28;20072;-54
2022/07/24 07:36:11;;;;;;;0.80;0.77;;;26.90;76.00;;;;;;5044253;28;20012;-54
2022/07/24 07:38:39;;;;;;;3.17;1.45;;;27.00;76.30;;;;;;5046228;28;20048;-54
2022/07/24 07:41:06;;;;;;;2.05;1.58;;;27.10;77.80;;;;;;5059159;28;20044;-59
2022/07/24 07:43:38;;;;;;;2.45;1.30;;;27.20;76.60;;;;;;5045341;28;20049;-55
2022/07/24 07:46:05;;;;;;;0.68;0.68;;;27.30;75.60;;;;;;5039517;28;20399;-55
2022/07/24 07:48:33;;;;;;;0.80;0.80;;;27.30;77.50;;;;;;5056016;28;20044;-58
2022/07/24 07:51:00;;;;;;;;;;;27.10;76.40;;;;;;5052932;28;20060;-57
2022/07/24 07:53:27;;;;;;;3.22;1.52;;;27.10;78.20;;;;;;5056747;28;19939;-58
2022/07/24 07:55:55;;;;;;;1.35;0.73;;;27.20;78.70;;;;;;5044783;28;20045;-61
2022/07/24 07:58:22;;;;;;;;;;;27.30;79.00;;;;;;5052240;28;20040;-57
2022/07/24 08:00:49;;;;;;;2.97;1.33;;;27.30;78.20;;;;;;5053222;28;19921;-57
2022/07/24 08:03:17;;;;;;;1.45;1.25;;;27.30;79.10;;;;;;5046712;28;20487;-54
2022/07/24 08:05:49;;;;;;;2.83;1.27;;;27.30;80.20;;;;;;5044422;28;20048;-56
2022/07/24 08:08:24;;;;;;;0.95;0.95;;;27.30;82.20;;;;;;5040722;28;20053;-54
2022/07/24 08:10:53;;;;;;;3.05;1.33;;;27.30;81.60;;;;;;5050558;28;20509;-55
2022/07/24 08:13:20;;;;;;;3.00;1.88;;;27.40;80.40;;;;;;5046060;28;20059;-56
2022/07/24 08:15:48;;;;;;;;;;;27.40;81.00;;;;;;5042203;28;20049;-57
2022/07/24 08:18:15;;;;;;;0.47;0.47;;;27.40;80.00;;;;;;5052946;28;19931;-57
2022/07/24 08:20:45;;;;;;;0.90;0.90;;;27.40;78.60;;;;;;5039410;28;20052;-52
2022/07/24 08:23:12;;;;;;;0.45;0.45;;;27.40;80.20;;;;;;5043849;28;20060;-54
2022/07/24 08:25:40;;;;;;;4.30;1.98;;;27.40;80.20;;;;;;5049130;28;20044;-60
2022/07/24 08:28:07;;;;;;;;;;;27.40;78.60;;;;;;5051652;28;20032;-59
2022/07/24 08:30:34;;;;;;;1.25;0.90;;;27.40;77.50;;;;;;5031218;28;19932;-57
2022/07/24 08:33:02;;;;;;;1.45;1.17;;;27.50;79.60;;;;;;5044439;28;20658;-57
2022/07/24 08:35:29;;;;;;;0.73;0.73;;;27.50;79.30;;;;;;5024416;28;20051;-60
2022/07/24 08:38:00;;;;;;;1.23;1.13;;;27.50;79.00;;;;;;5045559;28;20416;-62
2022/07/24 08:40:38;;;;;;;1.38;0.70;;;27.50;77.70;;;;;;5040810;28;20056;-61
2022/07/24 08:43:08;;;;;;;0.52;0.52;;;27.50;78.90;;;;;;5043305;28;20139;-62
2022/07/24 08:45:38;;;;;;;10.13;2.65;;;27.60;78.30;;;;;;5038919;28;20397;-62
2022/07/24 08:48:08;;;;;;;0.40;0.40;;;27.50;78.10;;;;;;5043058;28;20040;-61
2022/07/24 08:50:37;;;;;;;0.98;0.65;;;27.50;78.60;;;;;;5034993;28;20060;-62
2022/07/24 08:53:05;;;;;;;3.60;0.90;;;27.50;78.10;;;;;;5056860;28;20503;-57
2022/07/24 08:55:34;;;;;;;3.10;1.60;;;27.40;76.30;;;;;;5026473;28;20064;-63
2022/07/24 08:58:02;;;;;;;0.98;0.95;;;27.40;76.40;;;;;;5049115;28;20041;-61
2022/07/24 09:00:30;;;;;;;1.80;0.98;;;27.40;77.60;;;;;;5045649;28;20071;-59
2022/07/24 09:02:58;;;;;;;2.13;1.52;;;27.40;76.00;;;;;;5045151;28;20041;-60
2022/07/24 09:05:25;;;;;;;6.07;2.10;;;27.50;77.60;;;;;;5038983;28;20049;-60
2022/07/24 09:08:14;;;;;;;0.60;0.60;;;27.50;76.90;;;;;;5049167;28;20054;-62
2022/07/24 09:10:54;;;;;;;0.45;0.45;;;27.60;76.20;;;;;;5041452;28;20040;-63
2022/07/24 09:13:26;;;;;;;1.05;0.98;;;27.50;76.10;;;;;;5018496;28;20049;-62
2022/07/24 09:15:54;;;;;;;0.60;0.60;;;27.50;75.80;;;;;;5031447;28;20059;-62
2022/07/24 09:18:34;;;;;;;0.55;0.55;;;27.50;76.70;;;;;;5043931;28;20048;-60
2022/07/24 09:21:16;;;;;;;4.20;2.05;;;27.60;76.90;;;;;;5044527;28;20514;-61
2022/07/24 09:23:44;;;;;;;0.60;0.60;;;27.70;77.10;;;;;;5041360;28;20037;-63
2022/07/24 09:26:12;;;;;;;1.65;1.33;;;27.70;77.10;;;;;;5041029;28;20532;-60
2022/07/24 09:28:54;;;;;;;0.43;0.43;;;27.70;77.20;;;;;;5050920;28;20409;-62
2022/07/24 09:31:22;;;;;;;0.65;0.65;;;27.80;77.20;;;;;;5053644;28;20049;-61
2022/07/24 09:33:50;;;;;;;3.40;1.38;;;27.70;77.80;;;;;;5048367;28;20119;-61
2022/07/24 09:36:18;;;;;;;2.10;1.20;;;27.80;77.40;;;;;;5042384;28;20489;-61
2022/07/24 09:38:50;;;;;;;1.23;1.13;;;27.80;77.60;;;;;;5034528;28;20053;-62
2022/07/24 09:41:22;;;;;;;2.45;0.82;;;27.80;77.60;;;;;;5040968;28;20045;-60
2022/07/24 09:43:58;;;;;;;2.20;1.38;;;27.80;78.60;;;;;;5044663;28;20045;-63
2022/07/24 09:46:26;;;;;;;0.77;0.77;;;27.80;78.80;;;;;;5035979;28;20045;-60
2022/07/24 09:48:57;;;;;;;0.57;0.55;;;27.90;78.80;;;;;;5037985;28;20044;-61
2022/07/24 09:51:26;;;;;;;4.05;1.25;;;27.90;78.80;;;;;;5039053;28;20038;-57
2022/07/24 09:53:59;;;;;;;4.25;2.13;;;27.90;81.80;;;;;;5047557;28;20058;-64
2022/07/24 09:56:27;;;;;;;1.25;1.15;;;27.90;81.50;;;;;;5038563;28;20057;-63
2022/07/24 09:58:57;;;;;;;4.90;1.27;;;27.90;81.60;;;;;;5028196;28;20037;-61
2022/07/24 10:01:27;;;;;;;1.40;1.27;;;28.00;81.90;;;;;;5034306;28;20044;-62
2022/07/24 10:03:56;;;;;;;2.08;1.65;;;28.00;82.30;;;;;;5032881;28;20045;-63
2022/07/24 10:06:25;;;;;;;15.13;3.92;;;27.90;82.80;;;;;;5038663;28;20539;-63
2022/07/24 10:08:55;;;;;;;0.93;0.93;;;28.00;83.20;;;;;;5041754;28;20041;-61
2022/07/24 10:11:23;;;;;;;0.90;0.90;;;28.00;83.90;;;;;;5043946;28;20045;-59
2022/07/24 10:13:50;;;;;;;4.13;1.77;;;28.00;84.10;;;;;;5031538;28;20041;-60
2022/07/24 10:16:28;;;;;;;;;;;28.00;83.60;;;;;;5042013;28;20049;-61
2022/07/24 10:19:01;;;;;;;1.90;0.93;;;28.10;83.40;;;;;;5051667;28;19925;-59
2022/07/24 10:21:35;;;;;;;3.58;2.00;;;28.10;85.30;;;;;;5043482;28;20041;-59
2022/07/24 10:24:10;;;;;;;1.33;1.05;;;28.10;89.40;;;;;;5037126;28;20124;-58
2022/07/24 10:26:43;;;;;;;1.50;1.13;;;28.20;90.60;;;;;;5040607;28;20044;-59
2022/07/24 10:29:17;;;;;;;11.73;2.70;;;28.20;90.60;;;;;;5038784;28;20051;-60
2022/07/24 10:31:51;;;;;;;1.27;1.17;;;28.20;90.30;;;;;;5054739;28;20507;-59
2022/07/24 10:34:27;;;;;;;5.38;2.58;;;28.30;90.50;;;;;;5045728;28;20052;-57
2022/07/24 10:37:11;;;;;;;4.93;1.73;;;28.30;91.20;;;;;;5045189;28;20493;-54
2022/07/24 10:40:03;;;;;;;2.80;1.30;;;28.30;90.90;;;;;;5042843;28;20056;-58
2022/07/24 10:42:30;;;;;;;0.95;0.95;;;28.30;90.80;;;;;;5047401;28;20070;-59
2022/07/24 10:45:17;;;;;;;6.80;1.83;;;28.30;91.30;;;;;;5047391;28;20033;-58
2022/07/24 10:47:46;;;;;;;1.13;0.98;;;28.30;90.90;;;;;;5045617;28;20445;-57
2022/07/24 10:50:14;;;;;;;5.20;1.60;;;28.30;91.10;;;;;;5037287;28;20052;-55
2022/07/24 10:52:42;;;;;;;3.80;2.50;;;28.30;90.80;;;;;;5032126;28;20072;-53
2022/07/24 10:55:23;;;;;;;1.95;1.25;;;28.30;91.00;;;;;;5043225;28;20057;-55
2022/07/24 10:58:09;;;;;;;4.60;3.13;;;28.30;91.10;;;;;;5042514;28;20053;-57
2022/07/24 11:00:40;;;;;;;4.38;2.17;;;28.30;91.10;;;;;;5047272;28;20051;-55
2022/07/24 11:03:17;;;;;;;3.72;1.95;;;28.30;91.00;;;;;;5050062;28;20037;-56
2022/07/24 11:06:05;;;;;;;0.60;0.60;;;28.30;90.60;;;;;;5044518;28;20041;-57
2022/07/24 11:08:38;;;;;;;3.25;1.42;;;28.30;90.40;;;;;;5047234;28;20496;-57
2022/07/24 11:11:15;;;;;;;1.80;1.45;;;28.30;90.30;;;;;;5058012;28;20049;-57
2022/07/24 11:13:45;;;;;;;1.02;1.00;;;28.30;90.20;;;;;;5054619;28;20052;-58
2022/07/24 11:16:17;;;;;;;2.35;1.17;;;28.30;90.10;;;;;;5041021;28;20046;-57
2022/07/24 11:18:53;;;;;;;3.78;1.80;;;28.20;90.10;;;;;;5041129;28;20416;-51
2022/07/24 11:21:40;;;;;;;2.60;1.73;;;28.30;90.10;;;;;;5034982;28;20516;-55
2022/07/24 11:24:14;;;;;;;2.17;1.55;;;28.30;90.00;;;;;;4999216;28;20502;-54
2022/07/24 11:27:03;;;;;;;5.93;3.03;;;28.30;90.00;;;;;;5043461;28;20044;-54
2022/07/24 11:29:36;;;;;;;1.25;1.15;;;28.30;90.00;;;;;;5043826;28;20053;-55
2022/07/24 11:32:10;;;;;;;4.43;2.10;;;28.30;90.00;;;;;;5027034;28;20049;-55
2022/07/24 11:34:50;;;;;;;2.60;1.75;;;28.30;89.90;;;;;;5056131;28;20053;-55
2022/07/24 11:37:18;;;;;;;3.60;1.58;;;28.30;89.90;;;;;;5047020;28;20051;-56
2022/07/24 11:39:46;;;;;;;2.47;1.50;;;28.30;89.80;;;;;;5057755;28;20049;-58
2022/07/24 11:42:16;;;;;;;5.05;2.38;;;28.30;89.70;;;;;;5049603;28;20049;-54
2022/07/24 11:44:49;;;;;;;4.22;2.13;;;28.30;89.60;;;;;;5047558;28;20052;-54
2022/07/24 11:47:19;;;;;;;1.00;0.80;;;28.30;89.60;;;;;;5045118;28;20049;-56
2022/07/24 11:49:52;;;;;;;20.23;2.47;;;28.30;89.50;;;;;;5052827;28;20053;-56
2022/07/24 11:52:32;;;;;;;5.95;2.50;;;28.30;89.40;;;;;;5053049;28;20408;-54
2022/07/24 11:55:08;;;;;;;3.53;2.17;;;28.30;89.30;;;;;;5040806;28;20060;-58
2022/07/24 11:57:55;;;;;;;0.80;0.80;;;28.30;89.20;;;;;;5040198;28;20047;-52
2022/07/24 12:00:43;;;;;;;2.67;1.42;;;28.30;89.10;;;;;;5044419;28;20048;-54
2022/07/24 12:03:10;;;;;;;3.65;2.03;;;28.30;89.00;;;;;;5048538;28;20404;-57
2022/07/24 12:05:38;;;;;;;;;;;28.30;88.90;;;;;;5051742;28;20523;-54
2022/07/24 12:08:21;;;;;;;3.13;1.75;;;28.30;88.80;;;;;;5047625;28;19925;-56
2022/07/24 12:10:55;;;;;;;1.10;0.63;;;28.30;88.70;;;;;;5053622;28;20052;-58
2022/07/24 12:13:22;;;;;;;0.80;0.80;;;28.30;88.70;;;;;;5034918;28;20421;-59
2022/07/24 12:15:51;;;;;;;0.93;0.88;;;28.30;88.60;;;;;;5067514;28;20045;-60
2022/07/24 12:18:18;;;;;;;1.85;1.08;;;28.30;88.50;;;;;;5053544;28;20045;-60
2022/07/24 12:20:59;;;;;;;1.08;1.08;;;28.30;88.40;;;;;;5055499;28;20049;-57
2022/07/24 12:23:26;;;;;;;2.92;1.42;;;28.30;88.30;;;;;;5056810;28;20048;-56
2022/07/24 12:25:53;;;;;;;0.82;0.82;;;28.30;88.20;;;;;;5065867;28;20045;-59
2022/07/24 12:28:21;;;;;;;0.73;0.73;;;28.30;88.10;;;;;;5064660;28;20505;-61
2022/07/24 12:30:53;;;;;;;2.28;0.88;;;28.30;88.00;;;;;;5059829;28;20091;-57
2022/07/24 12:33:24;;;;;;;1.25;1.15;;;28.30;87.90;;;;;;5059012;28;20040;-60
2022/07/24 12:35:53;;;;;;;4.85;2.70;;;28.30;87.80;;;;;;5057493;28;20048;-58
2022/07/24 12:38:50;;;;;;;1.42;1.10;;;28.40;87.80;;;;;;5047195;28;20041;-58
2022/07/24 12:41:23;;;;;;;0.98;0.95;;;28.30;87.70;;;;;;5020548;28;20417;-55
2022/07/24 12:43:52;;;;;;;1.48;1.05;;;28.40;87.70;;;;;;5040159;28;20049;-59
2022/07/24 12:46:23;;;;;;;1.60;0.93;;;28.40;87.60;;;;;;5031627;28;20040;-56
2022/07/24 12:49:02;;;;;;;1.00;0.65;;;28.40;87.50;;;;;;5051726;28;20048;-58
2022/07/24 12:51:50;;;;;;;0.60;0.60;;;28.40;87.50;;;;;;5038416;28;20457;-57
2022/07/24 12:54:22;;;;;;;1.58;1.05;;;28.40;87.40;;;;;;5041308;28;20060;-58
2022/07/24 12:56:52;;;;;;;1.38;0.82;;;28.40;87.30;;;;;;5047528;28;20515;-58
2022/07/24 12:59:34;;;;;;;2.67;1.17;;;28.40;87.20;;;;;;5042617;28;20610;-55
2022/07/24 13:02:07;;;;;;;3.38;1.70;;;28.50;87.10;;;;;;5050761;28;20056;-56
2022/07/24 13:04:45;;;;;;;0.45;0.45;;;28.40;87.00;;;;;;5034917;28;20400;-55